createdAt,value
2022-11-19T00:00:10.219Z,0.00
2022-11-19T00:01:14.302Z,0.00
2022-11-19T00:02:18.773Z,0.00
2022-11-19T00:03:23.018Z,0.00
2022-11-19T00:04:27.229Z,0.00
2022-11-19T00:05:31.469Z,0.00
2022-11-19T00:06:35.646Z,0.00
2022-11-19T00:07:40.190Z,0.00
2022-11-19T00:08:44.352Z,0.00
2022-11-19T00:09:48.666Z,0.00
2022-11-19T00:10:52.764Z,0.50
2022-11-19T00:11:56.968Z,0.00
2022-11-19T00:13:00.979Z,0.00
2022-11-19T00:14:05.076Z,0.00
2022-11-19T00:15:09.624Z,0.00
2022-11-19T00:16:14.004Z,0.00
2022-11-19T00:17:18.203Z,0.25
2022-11-19T00:18:22.304Z,0.50
2022-11-19T00:19:26.524Z,0.00
2022-11-19T00:20:30.513Z,0.25
2022-11-19T00:21:34.526Z,0.00
2022-11-19T00:22:38.543Z,0.00
2022-11-19T00:23:42.624Z,0.00
2022-11-19T00:24:46.620Z,0.00
2022-11-19T00:25:50.723Z,0.00
2022-11-19T00:26:55.033Z,0.50
2022-11-19T00:27:58.814Z,0.50
2022-11-19T00:29:02.731Z,0.00
2022-11-19T00:30:20.047Z,0.00
2022-11-19T00:31:12.469Z,0.00
2022-11-19T00:32:16.785Z,0.50
2022-11-19T00:33:20.808Z,0.50
2022-11-19T00:34:25.308Z,0.00
2022-11-19T00:35:29.587Z,0.00
2022-11-19T00:36:33.631Z,0.00
2022-11-19T00:37:37.601Z,0.00
2022-11-19T00:38:41.812Z,0.00
2022-11-19T00:39:45.806Z,0.00
2022-11-19T00:40:49.915Z,0.00
2022-11-19T00:41:53.922Z,0.00
2022-11-19T00:42:57.915Z,0.00
2022-11-19T00:44:02.122Z,0.00
2022-11-19T00:45:06.431Z,0.00
2022-11-19T00:46:10.352Z,0.00
2022-11-19T00:47:14.133Z,0.50
2022-11-19T00:48:18.131Z,0.25
2022-11-19T00:49:22.325Z,0.00
2022-11-19T00:50:26.334Z,0.00
2022-11-19T00:51:30.246Z,0.00
2022-11-19T00:52:34.131Z,0.50
2022-11-19T00:53:38.128Z,0.00
2022-11-19T00:54:42.032Z,0.00
2022-11-19T00:55:46.029Z,0.25
2022-11-19T00:56:50.148Z,0.00
2022-11-19T00:57:54.234Z,0.00
2022-11-19T00:58:58.444Z,0.00
2022-11-19T01:00:02.749Z,0.00
2022-11-19T01:01:06.708Z,0.50
2022-11-19T01:02:11.064Z,0.00
2022-11-19T01:03:15.167Z,0.50
2022-11-19T01:04:18.941Z,0.50
2022-11-19T01:05:22.860Z,0.75
2022-11-19T01:06:26.733Z,0.50
2022-11-19T01:07:30.788Z,0.50
2022-11-19T01:08:35.063Z,0.75
2022-11-19T01:09:39.272Z,0.00
2022-11-19T01:10:43.029Z,0.00
2022-11-19T01:11:47.070Z,0.50
2022-11-19T01:12:51.115Z,1.00
2022-11-19T01:13:54.832Z,1.00
2022-11-19T01:14:58.766Z,1.00
2022-11-19T01:16:02.775Z,0.75
2022-11-19T01:17:06.867Z,1.00
2022-11-19T01:18:10.971Z,0.75
2022-11-19T01:19:15.076Z,0.75
2022-11-19T01:20:19.073Z,1.00
2022-11-19T01:22:39.683Z,0.75
2022-11-19T01:26:17.890Z,0.50
2022-11-19T01:27:21.892Z,0.50
2022-11-19T01:28:25.806Z,0.50
2022-11-19T01:29:30.179Z,1.00
2022-11-19T01:30:34.408Z,0.50
2022-11-19T01:31:38.307Z,0.50
2022-11-19T01:32:42.310Z,-0.25
2022-11-19T01:33:46.214Z,0.00
2022-11-19T01:34:50.108Z,0.25
2022-11-19T01:35:54.108Z,0.50
2022-11-19T01:36:58.215Z,0.25
2022-11-19T01:38:02.216Z,0.00
2022-11-19T01:39:06.326Z,0.50
2022-11-19T01:40:10.181Z,0.50
2022-11-19T01:41:14.118Z,0.25
2022-11-19T01:42:18.216Z,1.00
2022-11-19T01:43:22.219Z,1.00
2022-11-19T01:44:26.434Z,0.50
2022-11-19T01:45:30.439Z,0.50
2022-11-19T01:46:34.431Z,0.00
2022-11-19T01:47:38.324Z,0.75
2022-11-19T01:48:42.430Z,1.00
2022-11-19T01:49:46.321Z,0.25
2022-11-19T01:50:50.326Z,0.00
2022-11-19T01:51:54.361Z,0.00
2022-11-19T01:52:58.331Z,0.50
2022-11-19T01:54:02.543Z,0.50
2022-11-19T01:55:06.640Z,0.50
2022-11-19T01:56:10.506Z,0.00
2022-11-19T01:57:14.433Z,0.50
2022-11-19T01:58:18.331Z,0.25
2022-11-19T01:59:22.748Z,0.00
2022-11-19T02:00:26.764Z,0.50
2022-11-19T02:01:30.791Z,0.25
2022-11-19T02:02:34.850Z,0.00
2022-11-19T02:03:38.852Z,0.00
2022-11-19T02:04:42.612Z,0.00
2022-11-19T02:05:46.648Z,0.00
2022-11-19T02:06:50.542Z,0.00
2022-11-19T02:07:54.655Z,0.00
2022-11-19T02:08:58.752Z,0.50
2022-11-19T02:10:02.971Z,0.00
2022-11-19T02:11:06.832Z,0.00
2022-11-19T02:12:10.967Z,0.00
2022-11-19T02:13:15.172Z,0.00
2022-11-19T02:14:19.373Z,0.00
2022-11-19T02:15:23.264Z,0.25
2022-11-19T02:16:27.168Z,0.00
2022-11-19T02:17:31.173Z,0.50
2022-11-19T02:18:37.856Z,0.00
2022-11-19T02:19:42.148Z,0.00
2022-11-19T02:20:46.142Z,0.00
2022-11-19T02:21:50.047Z,0.00
2022-11-19T02:22:53.944Z,0.00
2022-11-19T02:23:57.939Z,0.00
2022-11-19T02:25:02.459Z,0.00
2022-11-19T02:26:06.665Z,0.00
2022-11-19T02:27:10.763Z,0.00
2022-11-19T02:28:14.865Z,0.00
2022-11-19T02:29:19.214Z,0.00
2022-11-19T02:30:23.183Z,0.00
2022-11-19T02:31:27.176Z,0.00
2022-11-19T02:32:31.182Z,0.00
2022-11-19T02:33:35.183Z,0.00
2022-11-19T02:34:39.290Z,0.50
2022-11-19T02:35:43.700Z,0.25
2022-11-19T02:36:47.585Z,0.00
2022-11-19T02:37:51.806Z,0.00
2022-11-19T02:38:55.806Z,0.00
2022-11-19T02:40:00.124Z,0.00
2022-11-19T02:41:04.324Z,0.00
2022-11-19T02:42:08.632Z,0.00
2022-11-19T02:43:12.727Z,0.00
2022-11-19T02:44:17.035Z,0.00
2022-11-19T02:45:21.353Z,0.00
2022-11-19T02:46:25.456Z,0.00
2022-11-19T02:47:29.762Z,0.00
2022-11-19T02:48:34.269Z,0.00
2022-11-19T02:49:38.574Z,0.25
2022-11-19T02:50:42.884Z,0.50
2022-11-19T02:51:47.296Z,0.50
2022-11-19T02:52:51.604Z,0.00
2022-11-19T02:53:55.702Z,0.00
2022-11-19T02:54:59.915Z,0.00
2022-11-19T02:56:04.323Z,0.00
2022-11-19T02:57:08.593Z,0.00
2022-11-19T02:58:12.749Z,0.00
2022-11-19T02:59:17.348Z,0.00
2022-11-19T03:00:21.903Z,0.00
2022-11-19T03:01:26.432Z,0.50
2022-11-19T03:02:30.515Z,0.00
2022-11-19T03:03:34.686Z,0.00
2022-11-19T03:04:38.583Z,0.00
2022-11-19T03:05:42.887Z,0.00
2022-11-19T03:06:46.800Z,0.00
2022-11-19T03:07:51.012Z,0.50
2022-11-19T03:08:54.968Z,0.50
2022-11-19T03:09:59.109Z,0.00
2022-11-19T03:11:03.514Z,0.00
2022-11-19T03:12:07.939Z,0.00
2022-11-19T03:13:12.099Z,0.00
2022-11-19T03:14:16.099Z,0.00
2022-11-19T03:15:20.088Z,0.00
2022-11-19T03:16:24.129Z,0.00
2022-11-19T03:17:28.547Z,0.00
2022-11-19T03:18:32.851Z,0.00
2022-11-19T03:19:37.213Z,0.00
2022-11-19T03:20:41.364Z,0.00
2022-11-19T03:21:45.770Z,0.00
2022-11-19T03:22:49.583Z,0.00
2022-11-19T03:23:53.445Z,0.00
2022-11-19T03:24:57.473Z,0.00
2022-11-19T03:26:01.469Z,0.50
2022-11-19T03:27:05.574Z,0.00
2022-11-19T03:28:09.580Z,0.00
2022-11-19T03:29:13.475Z,0.00
2022-11-19T03:30:17.475Z,0.00
2022-11-19T03:31:21.449Z,0.00
2022-11-19T03:32:25.475Z,0.00
2022-11-19T03:33:29.480Z,0.00
2022-11-19T03:34:33.479Z,0.50
2022-11-19T03:35:37.581Z,0.50
2022-11-19T03:36:41.580Z,0.50
2022-11-19T03:37:45.684Z,0.00
2022-11-19T03:38:49.799Z,0.00
2022-11-19T03:39:53.791Z,1.00
2022-11-19T03:40:57.587Z,0.00
2022-11-19T03:42:01.281Z,0.00
2022-11-19T03:43:05.283Z,0.00
2022-11-19T03:44:09.383Z,0.00
2022-11-19T03:45:13.588Z,0.00
2022-11-19T03:46:17.384Z,0.00
2022-11-19T03:47:21.495Z,0.00
2022-11-19T03:48:25.492Z,0.00
2022-11-19T03:49:29.705Z,0.50
2022-11-19T03:50:33.809Z,0.00
2022-11-19T03:51:37.624Z,0.00
2022-11-19T03:52:41.801Z,0.00
2022-11-19T03:53:45.684Z,0.00
2022-11-19T03:54:49.700Z,0.00
2022-11-19T03:55:53.884Z,0.00
2022-11-19T03:56:57.811Z,0.00
2022-11-19T03:58:02.114Z,0.00
2022-11-19T03:59:08.383Z,0.00
2022-11-19T04:00:11.550Z,0.00
2022-11-19T04:01:15.669Z,0.00
2022-11-19T04:02:19.990Z,0.00
2022-11-19T04:03:24.069Z,0.00
2022-11-19T04:04:28.170Z,0.00
2022-11-19T04:05:32.364Z,0.50
2022-11-19T04:06:36.684Z,0.00
2022-11-19T04:07:40.816Z,0.00
2022-11-19T04:08:44.788Z,0.25
2022-11-19T04:09:48.778Z,0.00
2022-11-19T04:10:52.790Z,0.00
2022-11-19T04:13:01.078Z,1.00
2022-11-19T04:14:05.312Z,-0.25
2022-11-19T04:15:09.509Z,0.00
2022-11-19T04:16:13.821Z,0.00
2022-11-19T04:17:17.924Z,0.75
2022-11-19T04:18:22.123Z,0.25
2022-11-19T04:19:26.544Z,0.00
2022-11-19T04:20:30.849Z,0.00
2022-11-19T04:21:35.163Z,0.00
2022-11-19T04:22:39.282Z,0.00
2022-11-19T04:23:43.666Z,0.00
2022-11-19T04:24:47.570Z,0.00
2022-11-19T04:25:51.574Z,0.00
2022-11-19T04:26:55.568Z,0.00
2022-11-19T04:27:59.595Z,0.00
2022-11-19T04:29:03.752Z,0.00
2022-11-19T04:30:07.984Z,0.00
2022-11-19T04:31:16.529Z,0.50
2022-11-19T04:32:17.211Z,0.00
2022-11-19T04:33:21.523Z,0.00
2022-11-19T04:34:25.832Z,0.50
2022-11-19T04:35:29.931Z,0.00
2022-11-19T04:36:34.238Z,0.00
2022-11-19T04:37:38.449Z,0.00
2022-11-19T04:38:42.419Z,0.00
2022-11-19T04:39:46.414Z,0.00
2022-11-19T04:40:50.555Z,1.00
2022-11-19T04:41:54.565Z,0.50
2022-11-19T04:42:58.555Z,0.50
2022-11-19T04:44:02.357Z,0.50
2022-11-19T04:45:06.354Z,0.00
2022-11-19T04:46:10.455Z,0.00
2022-11-19T04:47:17.763Z,0.00
2022-11-19T04:48:21.750Z,0.75
2022-11-19T04:49:25.631Z,0.50
2022-11-19T04:50:29.740Z,0.25
2022-11-19T04:51:33.578Z,0.25
2022-11-19T04:52:40.783Z,0.00
2022-11-19T04:53:42.575Z,0.00
2022-11-19T04:54:46.453Z,0.00
2022-11-19T04:55:50.663Z,0.00
2022-11-19T04:56:54.664Z,0.00
2022-11-19T04:57:58.663Z,0.00
2022-11-19T04:59:02.562Z,0.00
2022-11-19T05:00:06.563Z,0.00
2022-11-19T05:01:10.696Z,0.00
2022-11-19T05:02:15.459Z,0.00
2022-11-19T05:03:19.285Z,0.00
2022-11-19T05:04:23.286Z,0.00
2022-11-19T05:05:27.078Z,0.00
2022-11-19T05:06:30.984Z,0.00
2022-11-19T05:07:35.089Z,0.25
2022-11-19T05:08:39.187Z,0.00
2022-11-19T05:09:43.398Z,0.00
2022-11-19T05:10:47.087Z,0.00
2022-11-19T05:11:51.086Z,0.00
2022-11-19T05:12:55.089Z,0.50
2022-11-19T05:13:59.125Z,0.50
2022-11-19T05:15:03.296Z,0.00
2022-11-19T05:16:07.650Z,0.00
2022-11-19T05:17:11.673Z,0.25
2022-11-19T05:18:16.223Z,0.50
2022-11-19T05:20:32.112Z,0.00
2022-11-19T05:21:35.904Z,0.00
2022-11-19T05:22:39.831Z,0.25
2022-11-19T05:23:43.906Z,0.00
2022-11-19T05:24:47.706Z,0.00
2022-11-19T05:25:51.500Z,0.00
2022-11-19T05:26:55.397Z,0.00
2022-11-19T05:27:59.190Z,0.00
2022-11-19T05:29:02.983Z,0.00
2022-11-19T05:30:07.195Z,0.00
2022-11-19T05:31:11.093Z,0.75
2022-11-19T05:32:15.017Z,0.75
2022-11-19T05:33:18.890Z,0.00
2022-11-19T05:34:22.820Z,0.50
2022-11-19T05:35:26.894Z,0.25
2022-11-19T05:36:31.105Z,0.25
2022-11-19T05:37:34.999Z,0.75
2022-11-19T05:38:38.899Z,0.25
2022-11-19T05:39:42.794Z,0.50
2022-11-19T05:40:46.591Z,0.75
2022-11-19T05:41:50.596Z,0.50
2022-11-19T05:42:54.585Z,0.00
2022-11-19T05:43:58.699Z,0.00
2022-11-19T05:45:02.700Z,0.00
2022-11-19T05:46:06.805Z,0.00
2022-11-19T05:47:10.713Z,0.00
2022-11-19T05:48:14.622Z,0.50
2022-11-19T05:49:18.849Z,0.00
2022-11-19T05:50:22.742Z,1.00
2022-11-19T05:51:27.117Z,0.50
2022-11-19T05:52:31.009Z,0.00
2022-11-19T05:53:34.914Z,0.50
2022-11-19T05:54:38.838Z,0.00
2022-11-19T05:55:42.809Z,0.50
2022-11-19T05:56:46.328Z,1.00
2022-11-19T05:57:50.196Z,0.25
2022-11-19T05:58:54.236Z,0.00
2022-11-19T05:59:58.093Z,0.50
2022-11-19T06:01:01.913Z,0.50
2022-11-19T06:02:05.791Z,0.50
2022-11-19T06:03:09.629Z,0.00
2022-11-19T06:04:13.488Z,0.50
2022-11-19T06:05:17.592Z,0.00
2022-11-19T06:06:21.360Z,0.00
2022-11-19T06:07:25.215Z,0.25
2022-11-19T06:08:29.083Z,0.50
2022-11-19T06:09:32.981Z,1.00
2022-11-19T06:10:36.889Z,1.00
2022-11-19T06:11:40.886Z,1.00
2022-11-19T06:12:45.973Z,0.75
2022-11-19T06:13:49.703Z,0.00
2022-11-19T06:14:53.597Z,1.00
2022-11-19T06:15:57.401Z,1.00
2022-11-19T06:17:01.188Z,1.00
2022-11-19T06:18:05.039Z,0.25
2022-11-19T06:19:09.092Z,0.50
2022-11-19T06:20:13.090Z,0.75
2022-11-19T06:21:16.993Z,1.00
2022-11-19T06:22:20.893Z,0.75
2022-11-19T06:23:24.691Z,1.00
2022-11-19T06:24:28.831Z,1.00
2022-11-19T06:25:32.791Z,0.50
2022-11-19T06:26:36.796Z,0.50
2022-11-19T06:27:40.893Z,0.50
2022-11-19T06:28:45.002Z,0.50
2022-11-19T06:29:51.106Z,1.00
2022-11-19T06:30:53.654Z,1.00
2022-11-19T06:31:57.620Z,0.50
2022-11-19T06:33:01.415Z,0.00
2022-11-19T06:34:05.414Z,0.50
2022-11-19T06:35:09.214Z,1.00
2022-11-19T06:36:13.647Z,1.00
2022-11-19T06:37:17.730Z,0.50
2022-11-19T06:38:22.748Z,0.00
2022-11-19T06:39:27.065Z,0.00
2022-11-19T06:40:31.170Z,1.00
2022-11-19T06:41:34.820Z,0.50
2022-11-19T06:42:38.649Z,0.50
2022-11-19T06:43:42.553Z,1.00
2022-11-19T06:44:46.308Z,1.00
2022-11-19T06:45:50.042Z,1.00
2022-11-19T06:46:53.976Z,0.25
2022-11-19T06:47:57.942Z,0.50
2022-11-19T06:49:01.836Z,0.50
2022-11-19T06:50:05.847Z,0.50
2022-11-19T06:51:09.714Z,0.75
2022-11-19T06:52:13.840Z,1.00
2022-11-19T06:53:17.889Z,1.00
2022-11-19T06:54:21.637Z,0.50
2022-11-19T06:55:25.545Z,1.00
2022-11-19T06:56:29.446Z,1.00
2022-11-19T06:57:33.340Z,1.25
2022-11-19T06:58:37.342Z,0.50
2022-11-19T06:59:41.174Z,0.50
2022-11-19T07:00:45.439Z,1.00
2022-11-19T07:01:49.572Z,1.00
2022-11-19T07:02:53.548Z,1.00
2022-11-19T07:03:57.653Z,0.25
2022-11-19T07:05:02.066Z,0.50
2022-11-19T07:06:06.265Z,1.00
2022-11-19T07:07:10.307Z,0.50
2022-11-19T07:08:14.480Z,0.50
2022-11-19T07:09:18.980Z,0.50
2022-11-19T07:10:23.437Z,1.00
2022-11-19T07:11:27.609Z,1.25
2022-11-19T07:12:31.704Z,0.75
2022-11-19T07:13:35.810Z,1.00
2022-11-19T07:14:39.931Z,0.75
2022-11-19T07:15:44.013Z,1.25
2022-11-19T07:16:47.810Z,1.50
2022-11-19T07:17:51.607Z,1.50
2022-11-19T07:18:55.519Z,1.00
2022-11-19T07:19:59.291Z,0.50
2022-11-19T07:21:03.407Z,1.00
2022-11-19T07:22:07.730Z,2.00
2022-11-19T07:23:11.696Z,1.00
2022-11-19T07:24:15.820Z,0.50
2022-11-19T07:25:21.357Z,0.25
2022-11-19T07:26:25.380Z,1.50
2022-11-19T07:27:29.667Z,1.50
2022-11-19T07:28:33.868Z,1.00
2022-11-19T07:29:37.956Z,1.50
2022-11-19T07:30:42.084Z,2.00
2022-11-19T07:31:46.281Z,1.50
2022-11-19T07:32:50.323Z,1.50
2022-11-19T07:33:54.182Z,1.50
2022-11-19T07:34:58.183Z,1.50
2022-11-19T07:36:02.094Z,0.25
2022-11-19T07:37:06.387Z,1.50
2022-11-19T07:38:10.904Z,2.00
2022-11-19T07:39:15.008Z,0.50
2022-11-19T07:40:19.520Z,0.25
2022-11-19T07:41:23.741Z,1.25
2022-11-19T07:42:27.830Z,2.00
2022-11-19T07:43:32.139Z,1.25
2022-11-19T07:44:36.370Z,0.50
2022-11-19T07:45:40.660Z,1.00
2022-11-19T07:46:44.657Z,1.00
2022-11-19T07:47:48.655Z,1.50
2022-11-19T07:48:52.551Z,1.00
2022-11-19T07:49:56.457Z,0.25
2022-11-19T07:51:00.245Z,1.50
2022-11-19T07:52:04.666Z,1.00
2022-11-19T07:53:08.456Z,1.50
2022-11-19T07:54:12.251Z,2.50
2022-11-19T07:55:16.163Z,2.00
2022-11-19T07:56:19.907Z,2.00
2022-11-19T07:57:29.701Z,1.75
2022-11-19T07:58:28.563Z,1.50
2022-11-19T07:59:32.363Z,2.00
2022-11-19T08:00:36.061Z,1.25
2022-11-19T08:01:39.982Z,1.50
2022-11-19T08:02:43.897Z,1.50
2022-11-19T08:03:50.627Z,1.00
2022-11-19T08:04:52.768Z,0.50
2022-11-19T08:05:56.584Z,1.25
2022-11-19T08:07:00.515Z,1.50
2022-11-19T08:08:04.366Z,1.50
2022-11-19T08:09:08.270Z,2.00
2022-11-19T08:10:11.957Z,2.00
2022-11-19T08:11:15.871Z,2.00
2022-11-19T08:12:19.758Z,1.25
2022-11-19T08:13:23.550Z,1.00
2022-11-19T08:14:27.450Z,1.00
2022-11-19T08:15:31.459Z,1.00
2022-11-19T08:16:35.245Z,1.25
2022-11-19T08:17:39.057Z,1.50
2022-11-19T08:18:43.052Z,1.50
2022-11-19T08:19:47.047Z,1.25
2022-11-19T08:20:50.947Z,2.00
2022-11-19T08:21:54.843Z,2.00
2022-11-19T08:22:58.521Z,1.00
2022-11-19T08:24:02.228Z,1.00
2022-11-19T08:25:06.236Z,1.50
2022-11-19T08:26:10.427Z,1.25
2022-11-19T08:27:14.541Z,1.75
2022-11-19T08:28:18.549Z,2.00
2022-11-19T08:29:22.679Z,2.00
2022-11-19T08:30:26.647Z,1.50
2022-11-19T08:31:30.881Z,1.75
2022-11-19T08:32:34.856Z,1.50
2022-11-19T08:33:38.955Z,1.75
2022-11-19T08:34:43.272Z,2.00
2022-11-19T08:35:50.990Z,2.00
2022-11-19T08:36:54.860Z,2.00
2022-11-19T08:37:58.751Z,2.50
2022-11-19T08:39:02.759Z,2.50
2022-11-19T08:40:06.791Z,2.25
2022-11-19T08:41:11.064Z,1.25
2022-11-19T08:42:15.268Z,1.50
2022-11-19T08:43:19.482Z,1.50
2022-11-19T08:44:23.881Z,1.50
2022-11-19T08:45:27.987Z,1.25
2022-11-19T08:46:32.190Z,1.75
2022-11-19T08:47:36.292Z,3.00
2022-11-19T08:48:40.608Z,3.00
2022-11-19T08:49:44.707Z,2.50
2022-11-19T08:50:48.914Z,1.75
2022-11-19T08:51:52.909Z,2.00
2022-11-19T08:52:56.839Z,2.00
2022-11-19T08:54:00.712Z,2.50
2022-11-19T08:55:04.790Z,2.25
2022-11-19T08:56:10.912Z,2.50
2022-11-19T08:57:14.165Z,3.25
2022-11-19T08:58:18.352Z,2.50
2022-11-19T08:59:22.797Z,2.00
2022-11-19T09:00:27.198Z,2.00
2022-11-19T09:01:31.155Z,2.50
2022-11-19T09:02:35.378Z,2.25
2022-11-19T09:03:39.381Z,2.00
2022-11-19T09:04:43.589Z,2.50
2022-11-19T09:05:47.797Z,2.00
2022-11-19T09:06:51.605Z,2.00
2022-11-19T09:07:55.492Z,2.50
2022-11-19T09:08:59.403Z,2.75
2022-11-19T09:10:03.387Z,2.00
2022-11-19T09:11:07.491Z,3.00
2022-11-19T09:12:11.756Z,3.00
2022-11-19T09:13:15.900Z,3.00
2022-11-19T09:14:19.975Z,2.75
2022-11-19T09:15:24.174Z,2.25
2022-11-19T09:16:28.216Z,2.50
2022-11-19T09:17:32.111Z,2.50
2022-11-19T09:18:36.010Z,2.75
2022-11-19T09:19:39.926Z,3.00
2022-11-19T09:20:43.704Z,3.00
2022-11-19T09:21:47.609Z,3.00
2022-11-19T09:22:51.404Z,3.00
2022-11-19T09:23:55.312Z,3.00
2022-11-19T09:24:59.207Z,3.25
2022-11-19T09:26:03.110Z,2.25
2022-11-19T09:27:07.100Z,2.50
2022-11-19T09:28:11.116Z,3.00
2022-11-19T09:29:15.004Z,3.00
2022-11-19T09:30:19.073Z,2.50
2022-11-19T09:31:22.906Z,3.25
2022-11-19T09:32:26.796Z,3.00
2022-11-19T09:33:30.692Z,2.50
2022-11-19T09:34:34.591Z,2.50
2022-11-19T09:35:38.490Z,2.25
2022-11-19T09:36:42.291Z,2.60
2022-11-19T09:37:46.134Z,2.50
2022-11-19T09:38:49.850Z,3.00
2022-11-19T09:39:53.586Z,3.00
2022-11-19T09:40:57.573Z,3.00
2022-11-19T09:42:01.686Z,3.50
2022-11-19T09:43:05.600Z,3.00
2022-11-19T09:44:09.475Z,3.25
2022-11-19T09:45:13.895Z,4.00
2022-11-19T09:46:17.690Z,4.00
2022-11-19T09:47:21.493Z,3.25
2022-11-19T09:48:25.274Z,3.50
2022-11-19T09:49:29.075Z,3.00
2022-11-19T09:50:32.877Z,2.00
2022-11-19T09:51:37.183Z,3.00
2022-11-19T09:52:41.496Z,3.25
2022-11-19T09:53:45.589Z,4.25
2022-11-19T09:54:49.588Z,3.00
2022-11-19T09:55:53.487Z,3.00
2022-11-19T09:57:00.454Z,4.25
2022-11-19T09:58:02.134Z,3.50
2022-11-19T09:59:06.107Z,4.00
2022-11-19T10:00:10.216Z,4.00
2022-11-19T10:01:14.014Z,4.75
2022-11-19T10:02:18.013Z,5.25
2022-11-19T10:03:22.194Z,4.00
2022-11-19T10:04:26.209Z,4.00
2022-11-19T10:05:30.216Z,4.00
2022-11-19T10:06:34.322Z,5.00
2022-11-19T10:07:38.609Z,5.50
2022-11-19T10:08:42.626Z,5.00
2022-11-19T10:09:46.845Z,5.00
2022-11-19T10:10:50.945Z,4.00
2022-11-19T10:11:54.942Z,5.50
2022-11-19T10:12:58.842Z,5.00
2022-11-19T10:14:02.628Z,4.50
2022-11-19T10:15:06.482Z,5.00
2022-11-19T10:16:10.132Z,4.75
2022-11-19T10:17:13.925Z,5.00
2022-11-19T10:18:17.722Z,6.00
2022-11-19T10:19:21.590Z,5.00
2022-11-19T10:20:25.716Z,5.00
2022-11-19T10:21:32.788Z,5.00
2022-11-19T10:22:36.587Z,3.00
2022-11-19T10:23:40.382Z,3.00
2022-11-19T10:24:44.184Z,4.00
2022-11-19T10:25:47.972Z,4.00
2022-11-19T10:26:52.671Z,3.25
2022-11-19T10:27:56.393Z,4.50
2022-11-19T10:29:00.253Z,4.75
2022-11-19T10:30:04.006Z,4.50
2022-11-19T10:31:07.772Z,4.00
2022-11-19T10:32:11.629Z,3.75
2022-11-19T10:33:15.222Z,3.50
2022-11-19T10:34:19.921Z,3.00
2022-11-19T10:35:23.673Z,3.50
2022-11-19T10:36:27.584Z,3.50
2022-11-19T10:37:31.372Z,3.50
2022-11-19T10:38:35.150Z,2.50
2022-11-19T10:39:38.967Z,3.50
2022-11-19T10:40:42.761Z,3.50
2022-11-19T10:41:46.556Z,3.50
2022-11-19T10:42:50.362Z,3.00
2022-11-19T10:43:54.154Z,2.50
2022-11-19T10:44:57.942Z,3.25
2022-11-19T10:46:01.626Z,3.50
2022-11-19T10:47:05.540Z,3.00
2022-11-19T10:48:09.635Z,3.50
2022-11-19T10:49:13.545Z,3.50
2022-11-19T10:50:17.499Z,3.25
2022-11-19T10:51:21.436Z,4.50
2022-11-19T10:52:25.102Z,3.75
2022-11-19T10:53:28.810Z,4.00
2022-11-19T10:54:32.727Z,3.00
2022-11-19T10:55:36.619Z,3.00
2022-11-19T10:56:40.525Z,3.00
2022-11-19T10:57:44.344Z,2.50
2022-11-19T10:58:48.121Z,3.50
2022-11-19T10:59:52.014Z,3.50
2022-11-19T11:00:55.963Z,2.25
2022-11-19T11:01:59.812Z,3.50
2022-11-19T11:03:03.508Z,3.00
2022-11-19T11:04:07.548Z,3.50
2022-11-19T11:05:12.148Z,3.00
2022-11-19T11:06:15.879Z,3.25
2022-11-19T11:07:19.613Z,3.00
2022-11-19T11:08:23.405Z,3.50
2022-11-19T11:09:27.057Z,3.00
2022-11-19T11:10:30.750Z,3.50
2022-11-19T11:11:34.390Z,3.50
2022-11-19T11:12:38.281Z,2.75
2022-11-19T11:13:42.079Z,3.00
2022-11-19T11:14:45.885Z,3.50
2022-11-19T11:15:49.591Z,2.50
2022-11-19T11:16:53.378Z,2.75
2022-11-19T11:17:57.163Z,3.00
2022-11-19T11:19:01.072Z,3.50
2022-11-19T11:20:05.171Z,3.00
2022-11-19T11:21:08.816Z,3.00
2022-11-19T11:22:12.550Z,3.00
2022-11-19T11:23:16.454Z,2.50
2022-11-19T11:24:20.351Z,3.00
2022-11-19T11:25:24.145Z,3.25
2022-11-19T11:26:27.941Z,3.50
2022-11-19T11:27:31.947Z,4.00
2022-11-19T11:28:35.947Z,3.25
2022-11-19T11:29:39.742Z,3.50
2022-11-19T11:30:43.646Z,3.50
2022-11-19T11:31:47.449Z,3.50
2022-11-19T11:32:51.233Z,4.00
2022-11-19T11:33:55.029Z,3.50
2022-11-19T11:35:01.246Z,4.00
2022-11-19T11:36:03.641Z,2.75
2022-11-19T11:37:08.568Z,3.50
2022-11-19T11:38:12.673Z,4.50
2022-11-19T11:39:16.371Z,4.25
2022-11-19T11:40:20.062Z,3.00
2022-11-19T11:42:04.225Z,3.00
2022-11-19T11:42:28.986Z,3.00
2022-11-19T11:43:32.881Z,3.00
2022-11-19T11:44:36.469Z,3.00
2022-11-19T11:45:40.273Z,3.00
2022-11-19T11:46:44.174Z,3.00
2022-11-19T11:47:48.192Z,3.50
2022-11-19T11:48:52.273Z,3.50
2022-11-19T11:49:56.071Z,3.50
2022-11-19T11:50:59.937Z,3.50
2022-11-19T11:52:03.585Z,4.00
2022-11-19T11:53:07.454Z,4.00
2022-11-19T11:54:16.587Z,3.50
2022-11-19T11:55:16.690Z,3.50
2022-11-19T11:56:20.791Z,3.50
2022-11-19T11:57:24.890Z,4.00
2022-11-19T11:58:28.902Z,4.00
2022-11-19T11:59:33.132Z,2.50
2022-11-19T12:00:37.005Z,3.00
2022-11-19T12:01:41.102Z,4.00
2022-11-19T12:02:45.162Z,3.75
2022-11-19T12:03:54.850Z,2.50
2022-11-19T12:04:54.252Z,2.50
2022-11-19T12:05:58.133Z,3.25
2022-11-19T12:07:01.866Z,3.00
2022-11-19T12:08:05.937Z,3.00
2022-11-19T12:09:10.039Z,3.50
2022-11-19T12:10:13.888Z,3.50
2022-11-19T12:11:17.998Z,2.75
2022-11-19T12:12:21.628Z,3.00
2022-11-19T12:13:25.730Z,3.00
2022-11-19T12:14:29.639Z,3.00
2022-11-19T12:15:33.732Z,2.75
2022-11-19T12:16:37.636Z,2.75
2022-11-19T12:17:41.644Z,1.50
2022-11-19T12:18:45.634Z,2.00
2022-11-19T12:19:49.735Z,3.50
2022-11-19T12:20:53.735Z,3.25
2022-11-19T12:21:57.840Z,3.00
2022-11-19T12:23:01.639Z,3.00
2022-11-19T12:24:05.434Z,2.50
2022-11-19T12:25:09.432Z,3.50
2022-11-19T12:26:13.644Z,3.00
2022-11-19T12:27:17.741Z,2.50
2022-11-19T12:28:21.760Z,3.00
2022-11-19T12:29:25.965Z,3.00
2022-11-19T12:30:29.874Z,2.25
2022-11-19T12:31:33.656Z,2.50
2022-11-19T12:32:37.445Z,2.25
2022-11-19T12:33:41.304Z,2.50
2022-11-19T12:34:45.033Z,3.00
2022-11-19T12:35:48.933Z,3.00
2022-11-19T12:36:52.733Z,2.00
2022-11-19T12:37:56.524Z,2.50
2022-11-19T12:39:00.239Z,3.25
2022-11-19T12:40:03.917Z,3.00
2022-11-19T12:41:07.716Z,3.00
2022-11-19T12:42:11.712Z,3.00
2022-11-19T12:43:15.612Z,3.00
2022-11-19T12:44:19.811Z,3.25
2022-11-19T12:45:23.973Z,3.00
2022-11-19T12:46:27.768Z,3.00
2022-11-19T12:47:31.711Z,2.50
2022-11-19T12:48:35.570Z,2.75
2022-11-19T12:49:39.260Z,2.50
2022-11-19T12:50:42.855Z,4.00
2022-11-19T12:51:46.501Z,2.75
2022-11-19T12:52:50.493Z,3.00
2022-11-19T12:53:54.394Z,3.00
2022-11-19T12:54:58.294Z,3.50
2022-11-19T12:56:02.059Z,4.50
2022-11-19T12:57:05.814Z,3.50
2022-11-19T12:58:09.604Z,3.00
2022-11-19T12:59:13.275Z,3.25
2022-11-19T13:00:17.109Z,4.00
2022-11-19T13:01:20.941Z,2.50
2022-11-19T13:02:24.673Z,3.00
2022-11-19T13:03:28.559Z,3.25
2022-11-19T13:04:32.354Z,3.25
2022-11-19T13:05:36.107Z,2.50
2022-11-19T13:06:39.649Z,3.00
2022-11-19T13:07:43.357Z,3.50
2022-11-19T13:08:47.042Z,4.00
2022-11-19T13:09:50.922Z,4.50
2022-11-19T13:10:54.586Z,3.50
2022-11-19T13:11:58.410Z,2.75
2022-11-19T13:13:02.109Z,3.00
2022-11-19T13:14:05.806Z,4.50
2022-11-19T13:15:09.474Z,3.00
2022-11-19T13:16:13.092Z,2.75
2022-11-19T13:17:16.669Z,4.00
2022-11-19T13:18:20.336Z,3.25
2022-11-19T13:19:24.173Z,2.75
2022-11-19T13:20:28.065Z,3.75
2022-11-19T13:21:32.074Z,4.00
2022-11-19T13:22:36.171Z,3.50
2022-11-19T13:23:40.389Z,4.00
2022-11-19T13:24:44.381Z,4.25
2022-11-19T13:25:48.282Z,3.50
2022-11-19T13:26:52.283Z,4.00
2022-11-19T13:27:56.283Z,3.50
2022-11-19T13:29:00.183Z,3.50
2022-11-19T13:30:04.084Z,3.50
2022-11-19T13:31:08.293Z,3.50
2022-11-19T13:32:12.182Z,3.25
2022-11-19T13:33:16.183Z,3.50
2022-11-19T13:34:20.597Z,3.00
2022-11-19T13:35:24.591Z,3.50
2022-11-19T13:36:28.699Z,4.50
2022-11-19T13:37:32.813Z,4.25
2022-11-19T13:38:37.012Z,4.00
2022-11-19T13:39:40.922Z,4.00
2022-11-19T13:40:44.804Z,4.00
2022-11-19T13:41:48.929Z,4.00
2022-11-19T13:43:17.088Z,3.25
2022-11-19T13:43:58.042Z,3.50
2022-11-19T13:45:01.740Z,3.00
2022-11-19T13:46:05.534Z,3.50
2022-11-19T13:47:09.503Z,2.75
2022-11-19T13:48:13.121Z,3.00
2022-11-19T13:49:17.005Z,3.25
2022-11-19T13:50:20.715Z,3.50
2022-11-19T13:51:24.382Z,3.25
2022-11-19T13:52:28.101Z,3.75
2022-11-19T13:53:32.002Z,3.50
2022-11-19T13:54:35.793Z,3.00
2022-11-19T13:55:39.790Z,3.75
2022-11-19T13:56:43.493Z,4.25
2022-11-19T13:57:47.187Z,3.50
2022-11-19T13:58:51.081Z,2.50
2022-11-19T13:59:54.980Z,3.00
2022-11-19T14:00:58.607Z,3.50
2022-11-19T14:02:02.462Z,3.50
2022-11-19T14:03:06.164Z,3.50
2022-11-19T14:04:10.171Z,3.50
2022-11-19T14:05:14.114Z,2.75
2022-11-19T14:06:18.172Z,3.00
2022-11-19T14:07:24.531Z,3.00
2022-11-19T14:08:27.363Z,2.75
2022-11-19T14:09:31.363Z,2.25
2022-11-19T14:10:35.312Z,3.00
2022-11-19T14:11:39.201Z,3.25
2022-11-19T14:12:43.105Z,2.50
2022-11-19T14:13:46.847Z,3.50
2022-11-19T14:14:50.596Z,3.75
2022-11-19T14:15:54.495Z,3.50
2022-11-19T14:16:58.389Z,2.50
2022-11-19T14:18:02.201Z,2.00